Nieuw Amsterdam — PBWQ — position and weather

sailwx.info

Track history (hours):
 
Tides and Currents Weather Stations Pressure Air Temp Water Temp Dewpoint Dewpoint Depression Visibility Wind Speed Wind Dir Waves Ship Positions

Nieuw Amsterdam

Last reported at 2014-Jul-22 05:00 UTC. Time now 2014-Jul-23 19:47 UTC.
Position N 44°42' E 013°00'.

Length 285 m; draft 8 m.

Type: Ship. MMSI: 246648000.

Wind from 290 at 18 knots

Waves 1.5 meters (5 feet), 6 second period

Barometer 1002.0 mb
Air temperature 22.0 ° C
Visibility: greater than 5.4 NM
Dewpoint 16.0 ° C

Date/timePositionNaut miles runAvg speedWind from/ knotsBaromVisibWave heightAir tempDewpointWater temp
2014-Jul-22 05:00N 44°42' E 013°00'   290 / 181002.0 5.4 1.522.016.0
2014-Jul-19 19:30N 36°24' E 023°10'2017.4
2014-Jul-19 18:22N 36°24' E 023°34'1517.5
2014-Jul-19 17:32N 36°25' E 023°52'1717.3
2014-Jul-19 16:33N 36°26' E 024°13'1717.4
2014-Jul-19 15:33N 36°28' E 024°35'1817.8
2014-Jul-19 14:33N 36°29' E 024°57'1717.3
2014-Jul-19 13:33N 36°29' E 025°19'7 6.1
2014-Jul-19 12:27N 36°25' E 025°25'0 0.0
2014-Jul-19 11:09N 36°25' E 025°25'0 0.0
2014-Jul-19 10:27N 36°25' E 025°25'0 0.0
2014-Jul-19 09:21N 36°25' E 025°25'0 0.0
2014-Jul-19 08:15N 36°25' E 025°25'0 0.0
2014-Jul-19 07:21N 36°25' E 025°25'0 0.0
2014-Jul-19 06:27N 36°25' E 025°25'0 0.0
2014-Jul-19 05:33N 36°25' E 025°25'0 0.0
2014-Jul-19 04:27N 36°25' E 025°25'1 0.7
2014-Jul-19 03:32N 36°24' E 025°25'6 6.6
2014-Jul-19 02:33N 36°26' E 025°17'4 8.0
2014-Jul-19 02:00N 36°24' E 025°12'1535.0 320 / 131010.710.8 0.524.519.122.0
2014-Jul-19 01:33N 36°35' E 025°26'1211.7
2014-Jul-19 00:33N 36°43' E 025°35'1313.1
2014-Jul-18 23:33N 36°54' E 025°46'1212.1
2014-Jul-18 22:33N 37°04' E 025°54'1212.1
2014-Jul-18 21:33N 37°14' E 026°03'1212.0
2014-Jul-18 20:33N 37°24' E 026°11'1212.0
2014-Jul-18 19:33N 37°33' E 026°20'1212.1
2014-Jul-18 18:33N 37°43' E 026°30'1212.0
2014-Jul-18 17:33N 37°50' E 026°42'5 0.3
2014-Jul-18 00:30N 37°55' E 026°40'1613.0
2014-Jul-17 23:14N 37°57' E 026°19'913.1
2014-Jul-17 22:31N 38°01' E 026°09'1713.4
2014-Jul-17 21:16N 38°09' E 025°49'913.0
2014-Jul-17 20:33N 38°18' E 025°45'1313.0
2014-Jul-17 19:33N 38°31' E 025°44'  
2014-Jul-15 05:33N 40°28' E 026°52'5914.8
2014-Jul-15 01:32N 39°50' E 025°52'1818.2
2014-Jul-15 00:33N 39°33' E 025°43'1918.4
2014-Jul-14 23:30N 39°17' E 025°30'1718.2
2014-Jul-14 22:33N 39°01' E 025°20'1717.2
2014-Jul-14 21:33N 38°46' E 025°11'5717.2
2014-Jul-14 18:15N 37°56' E 024°36'1217.6
2014-Jul-14 17:33N 37°48' E 024°25'1817.2
2014-Jul-14 16:30N 37°37' E 024°06'1516.4
2014-Jul-14 15:33N 37°38' E 023°46'1616.1
2014-Jul-14 14:33N 37°52' E 023°36'4 4.1
2014-Jul-14 13:33N 37°56' E 023°37'0 0.0
2014-Jul-14 12:33N 37°56' E 023°37'0 0.0
2014-Jul-14 11:33N 37°56' E 023°37'0 0.0
2014-Jul-14 10:33N 37°56' E 023°37'0 0.0
2014-Jul-14 09:33N 37°56' E 023°37'0 0.0
2014-Jul-14 08:33N 37°56' E 023°37'0 0.0
2014-Jul-14 07:33N 37°56' E 023°37'0 0.0
2014-Jul-14 06:30N 37°56' E 023°37'1 0.4
2014-Jul-14 03:33N 37°55' E 023°36'9 8.5
2014-Jul-14 02:33N 37°48' E 023°40'1313.0
2014-Jul-14 01:33N 37°35' E 023°43'1515.2
2014-Jul-14 00:33N 37°20' E 023°39'3415.4
2014-Jul-13 22:19N 36°47' E 023°27'1216.2
2014-Jul-13 21:33N 36°35' E 023°23'  
Track history (hours):
 
Tides and Currents Weather Stations Pressure Air Temp Water Temp Dewpoint Dewpoint Depression Visibility Wind Speed Wind Dir Waves Ship Positions

Nieuw Amsterdam

Last reported at 2014-Jul-22 05:00 UTC. Time now 2014-Jul-23 19:47 UTC.
Position N 44°42' E 013°00'.

Length 285 m; draft 8 m.

Type: Ship. MMSI: 246648000.

Wind from 290 at 18 knots

Waves 1.5 meters (5 feet), 6 second period

Barometer 1002.0 mb
Air temperature 22.0 ° C
Visibility: greater than 5.4 NM
Dewpoint 16.0 ° C

Date/timePositionNaut miles runAvg speedWind from/ knotsBaromVisibWave heightAir tempDewpointWater temp
2014-Jul-22 05:00N 44°42' E 013°00'   290 / 181002.0 5.4 1.522.016.0
2014-Jul-19 19:30N 36°24' E 023°10'2017.4
2014-Jul-19 18:22N 36°24' E 023°34'1517.5
2014-Jul-19 17:32N 36°25' E 023°52'1717.3
2014-Jul-19 16:33N 36°26' E 024°13'1717.4
2014-Jul-19 15:33N 36°28' E 024°35'1817.8
2014-Jul-19 14:33N 36°29' E 024°57'1717.3
2014-Jul-19 13:33N 36°29' E 025°19'7 6.1
2014-Jul-19 12:27N 36°25' E 025°25'0 0.0
2014-Jul-19 11:09N 36°25' E 025°25'0 0.0
2014-Jul-19 10:27N 36°25' E 025°25'0 0.0
2014-Jul-19 09:21N 36°25' E 025°25'0 0.0
2014-Jul-19 08:15N 36°25' E 025°25'0 0.0
2014-Jul-19 07:21N 36°25' E 025°25'0 0.0
2014-Jul-19 06:27N 36°25' E 025°25'0 0.0
2014-Jul-19 05:33N 36°25' E 025°25'0 0.0
2014-Jul-19 04:27N 36°25' E 025°25'1 0.7
2014-Jul-19 03:32N 36°24' E 025°25'6 6.6
2014-Jul-19 02:33N 36°26' E 025°17'4 8.0
2014-Jul-19 02:00N 36°24' E 025°12'1535.0 320 / 131010.710.8 0.524.519.122.0
2014-Jul-19 01:33N 36°35' E 025°26'1211.7
2014-Jul-19 00:33N 36°43' E 025°35'1313.1
2014-Jul-18 23:33N 36°54' E 025°46'1212.1
2014-Jul-18 22:33N 37°04' E 025°54'1212.1
2014-Jul-18 21:33N 37°14' E 026°03'1212.0
2014-Jul-18 20:33N 37°24' E 026°11'1212.0
2014-Jul-18 19:33N 37°33' E 026°20'1212.1
2014-Jul-18 18:33N 37°43' E 026°30'1212.0
2014-Jul-18 17:33N 37°50' E 026°42'5 0.3
2014-Jul-18 00:30N 37°55' E 026°40'1613.0
2014-Jul-17 23:14N 37°57' E 026°19'913.1
2014-Jul-17 22:31N 38°01' E 026°09'1713.4
2014-Jul-17 21:16N 38°09' E 025°49'913.0
2014-Jul-17 20:33N 38°18' E 025°45'1313.0
2014-Jul-17 19:33N 38°31' E 025°44'  
2014-Jul-15 05:33N 40°28' E 026°52'5914.8
2014-Jul-15 01:32N 39°50' E 025°52'1818.2
2014-Jul-15 00:33N 39°33' E 025°43'1918.4
2014-Jul-14 23:30N 39°17' E 025°30'1718.2
2014-Jul-14 22:33N 39°01' E 025°20'1717.2
2014-Jul-14 21:33N 38°46' E 025°11'5717.2
2014-Jul-14 18:15N 37°56' E 024°36'1217.6
2014-Jul-14 17:33N 37°48' E 024°25'1817.2
2014-Jul-14 16:30N 37°37' E 024°06'1516.4
2014-Jul-14 15:33N 37°38' E 023°46'1616.1
2014-Jul-14 14:33N 37°52' E 023°36'4 4.1
2014-Jul-14 13:33N 37°56' E 023°37'0 0.0
2014-Jul-14 12:33N 37°56' E 023°37'0 0.0
2014-Jul-14 11:33N 37°56' E 023°37'0 0.0
2014-Jul-14 10:33N 37°56' E 023°37'0 0.0
2014-Jul-14 09:33N 37°56' E 023°37'0 0.0
2014-Jul-14 08:33N 37°56' E 023°37'0 0.0
2014-Jul-14 07:33N 37°56' E 023°37'0 0.0
2014-Jul-14 06:30N 37°56' E 023°37'1 0.4
2014-Jul-14 03:33N 37°55' E 023°36'9 8.5
2014-Jul-14 02:33N 37°48' E 023°40'1313.0
2014-Jul-14 01:33N 37°35' E 023°43'1515.2
2014-Jul-14 00:33N 37°20' E 023°39'3415.4
2014-Jul-13 22:19N 36°47' E 023°27'1216.2
2014-Jul-13 21:33N 36°35' E 023°23'  

Dump ship's entire track history